Time;durP1;ratioP1;P1;durP2;ratioP2;P2;SDS_P1;SDS_P2;PMS_P1;PMS_P2;Temp;Humidity;BMP_temperature;BMP_pressure;BME280_temperature;BME280_humidity;BME280_pressure;Samples;Min_cycle;Max_cycle;Signal;HPM_P1;HPM_P2
2023/04/06 00:00:36;;;;;;;21.30;9.75;;;;;;;9.84;100.00;100373.06;5037964;28;20090;-91
2023/04/06 00:03:03;;;;;;;16.15;8.30;;;;;;;9.79;100.00;100356.72;5055888;28;20099;-90
2023/04/06 00:05:30;;;;;;;17.58;8.30;;;;;;;9.72;100.00;100349.16;5038162;28;20056;-91
2023/04/06 00:07:58;;;;;;;18.92;9.50;;;;;;;10.09;100.00;100403.44;5038254;28;20663;-91
2023/04/06 00:10:25;;;;;;;18.02;9.68;;;;;;;9.86;100.00;100368.63;5055417;28;20099;-91
2023/04/06 00:12:52;;;;;;;17.17;8.88;;;;;;;10.10;100.00;100399.91;5036858;28;20037;-91
2023/04/06 00:15:20;;;;;;;18.60;9.68;;;;;;;9.79;100.00;100346.25;5037407;28;20099;-91
2023/04/06 00:17:46;;;;;;;17.73;9.48;;;;;;;9.72;100.00;100331.75;5037793;28;20049;-92
2023/04/06 00:20:13;;;;;;;17.85;9.20;;;;;;;9.92;100.00;100358.84;5037085;28;20088;-92
2023/04/06 00:22:40;;;;;;;17.02;8.82;;;;;;;9.88;100.00;100347.66;5055020;28;20588;-91
2023/04/06 00:25:07;;;;;;;18.73;9.15;;;;;;;9.74;100.00;100321.19;5054539;28;20456;-91
2023/04/06 00:27:34;;;;;;;17.30;8.40;;;;;;;9.93;100.00;100344.81;5054782;28;20053;-91
2023/04/06 00:30:01;;;;;;;17.25;9.13;;;;;;;9.94;100.00;100338.69;5045580;28;20387;-91
2023/04/06 00:32:28;;;;;;;17.27;9.02;;;;;;;9.88;100.00;100331.97;5036521;28;20049;-90
2023/04/06 00:34:55;;;;;;;20.02;9.88;;;;;;;9.62;100.00;100286.81;5036859;28;20064;-91
2023/04/06 00:37:22;;;;;;;19.58;9.55;;;;;;;9.98;100.00;100345.50;5039825;28;20099;-91
2023/04/06 00:39:48;;;;;;;19.27;10.27;;;;;;;10.04;100.00;100358.34;5037475;28;20052;-90
2023/04/06 00:42:15;;;;;;;17.80;9.45;;;;;;;9.88;100.00;100326.72;5044649;28;20094;-91
2023/04/06 00:44:42;;;;;;;16.00;8.20;;;;;;;10.17;100.00;100359.50;5048619;28;20376;-91
2023/04/06 00:47:09;;;;;;;18.05;8.60;;;;;;;9.81;100.00;100313.06;5037270;28;20478;-92
2023/04/06 00:49:36;;;;;;;21.48;10.77;;;;;;;9.83;100.00;100315.59;5055380;28;20486;-92
2023/04/06 00:52:03;;;;;;;21.85;11.38;;;;;;;9.66;100.00;100290.16;5033092;28;20057;-90
2023/04/06 00:54:30;;;;;;;19.83;11.57;;;;;;;9.75;100.00;100297.59;5037444;28;20055;-91
2023/04/06 00:56:57;;;;;;;21.45;9.60;;;;;;;9.93;100.00;100322.13;5035161;28;20544;-92
2023/04/06 00:59:24;;;;;;;22.48;9.95;;;;;;;9.89;100.00;100310.94;5036425;28;20053;-92
2023/04/06 01:01:51;;;;;;;20.50;9.90;;;;;;;9.78;100.00;100296.66;5035571;28;20060;-91
2023/04/06 01:04:18;;;;;;;24.10;11.57;;;;;;;9.97;100.00;100321.13;5037565;28;20056;-91
2023/04/06 01:06:45;;;;;;;15.38;8.10;;;;;;;9.96;100.00;100300.25;5054240;28;20049;-91
2023/04/06 01:09:12;;;;;;;17.92;9.80;;;;;;;9.88;100.00;100298.81;5036323;28;20277;-90
2023/04/06 01:11:38;;;;;;;17.35;9.15;;;;;;;9.71;100.00;100264.66;5053563;28;20111;-91
2023/04/06 01:14:05;;;;;;;20.17;9.75;;;;;;;9.85;100.00;100282.41;5036424;28;20044;-91
2023/04/06 01:16:33;;;;;;;23.55;11.52;;;;;;;9.57;100.00;100252.16;5036724;28;20379;-91
2023/04/06 01:19:00;;;;;;;18.70;8.43;;;;;;;9.70;100.00;100270.78;5054677;28;20056;-91
2023/04/06 01:21:27;;;;;;;15.80;8.77;;;;;;;9.84;100.00;100292.00;5035910;28;20122;-91
2023/04/06 01:23:53;;;;;;;21.10;11.40;;;;;;;9.95;100.00;100312.50;5054006;28;20144;-92
2023/04/06 01:26:20;;;;;;;18.40;10.60;;;;;;;9.60;100.00;100259.03;5035579;28;20101;-91
2023/04/06 01:28:47;;;;;;;21.77;11.25;;;;;;;9.77;100.00;100277.47;5037183;28;20082;-92
2023/04/06 01:31:14;;;;;;;22.58;12.07;;;;;;;9.85;100.00;100301.53;5034287;28;20033;-92
2023/04/06 01:33:41;;;;;;;18.13;9.82;;;;;;;9.64;100.00;100261.44;5055012;28;20102;-93
2023/04/06 01:36:08;;;;;;;19.23;9.75;;;;;;;9.57;100.00;100238.25;5036504;28;20048;-92
2023/04/06 01:38:34;;;;;;;19.42;9.60;;;;;;;9.86;100.00;100258.81;5037826;28;20045;-93
2023/04/06 01:41:01;;;;;;;19.38;9.68;;;;;;;9.77;100.00;100242.63;5055060;28;20544;-93
2023/04/06 01:43:28;;;;;;;20.70;11.20;;;;;;;9.67;100.00;100256.09;5039104;28;20048;-94
2023/04/06 01:45:55;;;;;;;19.00;9.10;;;;;;;9.54;100.00;100220.91;5039241;28;20056;-94
2023/04/06 01:48:22;;;;;;;21.95;10.65;;;;;;;9.62;100.00;100244.97;5039150;28;20556;-93
2023/04/06 01:50:48;;;;;;;18.00;9.07;;;;;;;9.59;100.00;100229.41;5037282;28;20189;-92
2023/04/06 01:53:16;;;;;;;16.70;9.20;;;;;;;9.61;100.00;100226.75;5037046;28;20045;-92
2023/04/06 01:55:42;;;;;;;20.15;10.27;;;;;;;9.85;100.00;100262.31;5036623;28;20045;-92
2023/04/06 01:58:09;;;;;;;20.58;10.10;;;;;;;9.69;100.00;100245.59;5037233;28;20056;-93
2023/04/06 02:00:36;;;;;;;19.13;9.35;;;;;;;9.93;100.00;100280.28;5037314;28;20194;-92
2023/04/06 02:03:03;;;;;;;19.63;10.57;;;;;;;9.78;100.00;100252.19;5033474;28;20053;-92
2023/04/06 02:05:33;;;;;;;19.45;10.23;;;;;;;9.87;100.00;100268.34;5036859;28;20059;-91
2023/04/06 02:07:59;;;;;;;18.92;9.27;;;;;;;9.73;100.00;100241.91;5036414;28;20121;-92
2023/04/06 02:10:26;;;;;;;22.35;9.05;;;;;;;9.58;100.00;100235.56;5035746;28;20818;-91
2023/04/06 02:12:53;;;;;;;25.40;12.70;;;;;;;9.39;100.00;100198.06;5052927;28;20057;-92
2023/04/06 02:15:19;;;;;;;27.52;12.48;;;;;;;9.24;100.00;100191.69;5036591;28;20052;-92
2023/04/06 02:17:46;;;;;;;24.33;10.63;;;;;;;9.37;100.00;100216.41;5036342;28;20061;-92
2023/04/06 02:20:13;;;;;;;27.05;10.93;;;;;;;9.31;100.00;100225.34;5029947;28;20042;-93
2023/04/06 02:22:40;;;;;;;25.23;9.98;;;;;;;9.19;100.00;100207.56;5036119;28;20060;-92
2023/04/06 02:25:07;;;;;;;28.05;12.38;;;;;;;9.11;100.00;100210.44;5036467;28;20451;-91
2023/04/06 02:27:35;;;;;;;22.75;8.50;;;;;;;9.42;100.00;100266.72;5036422;28;20060;-92
2023/04/06 02:30:05;;;;;;;23.45;10.25;;;;;;;9.31;100.00;100253.22;5036325;28;20053;-92
2023/04/06 02:32:32;;;;;;;27.13;10.68;;;;;;;8.89;100.00;100188.75;5028147;28;20103;-92
2023/04/06 02:35:00;;;;;;;24.60;11.20;;;;;;;9.15;100.00;100241.69;5031900;28;20202;-92
2023/04/06 02:37:26;;;;;;;19.95;9.45;;;;;;;9.10;100.00;100221.84;5032313;28;20054;-91
2023/04/06 02:39:54;;;;;;;21.48;11.10;;;;;;;9.22;100.00;100240.53;5029085;28;20045;-92
2023/04/06 02:42:21;;;;;;;23.70;12.10;;;;;;;9.11;100.00;100248.78;5034972;28;20052;-91
2023/04/06 02:44:47;;;;;;;20.17;9.45;;;;;;;9.08;100.00;100221.03;5035954;28;20489;-92
2023/04/06 02:47:14;;;;;;;22.17;10.30;;;;;;;9.18;100.00;100231.97;5036174;28;20053;-92
2023/04/06 02:49:41;;;;;;;19.10;9.82;;;;;;;9.06;100.00;100204.56;5035292;28;20045;-92
2023/04/06 02:52:08;;;;;;;18.58;8.25;;;;;;;8.84;100.00;100169.78;5050828;28;20402;-91
2023/04/06 02:54:34;;;;;;;19.88;9.45;;;;;;;9.04;100.00;100202.94;5027159;28;20111;-91
2023/04/06 02:57:01;;;;;;;21.80;10.18;;;;;;;9.42;100.00;100269.31;5028560;28;20119;-91
2023/04/06 02:59:30;;;;;;;20.15;10.00;;;;;;;9.16;100.00;100223.34;5039002;28;20049;-92
2023/04/06 03:01:57;;;;;;;20.75;10.68;;;;;;;8.85;100.00;100181.91;5038456;28;20049;-91
2023/04/06 03:04:25;;;;;;;18.00;9.30;;;;;;;9.03;100.00;100199.47;5036525;28;20103;-92
2023/04/06 03:06:53;;;;;;;18.02;8.40;;;;;;;9.16;100.00;100215.50;5039516;28;20049;-93
2023/04/06 03:09:20;;;;;;;19.48;9.27;;;;;;;9.17;100.00;100212.00;5056077;28;20099;-92
2023/04/06 03:11:46;;;;;;;20.23;9.48;;;;;;;9.25;100.00;100222.97;5038691;28;20099;-92
2023/04/06 03:14:13;;;;;;;19.88;9.55;;;;;;;9.12;100.00;100206.09;5039143;28;20044;-92
2023/04/06 03:16:40;;;;;;;15.43;6.95;;;;;;;9.08;100.00;100200.16;5057134;28;20115;-91
2023/04/06 03:19:06;;;;;;;16.50;7.60;;;;;;;8.76;100.00;100151.81;5039900;28;20053;-92
2023/04/06 03:21:33;;;;;;;12.93;5.95;;;;;;;8.88;100.00;100166.97;5039720;28;20071;-92
2023/04/06 03:24:00;;;;;;;19.10;8.75;;;;;;;9.18;100.00;100215.44;5039664;28;20102;-92
2023/04/06 03:26:27;;;;;;;15.18;7.60;;;;;;;9.22;100.00;100223.09;5038876;28;20550;-93
2023/04/06 03:28:53;;;;;;;15.32;7.05;;;;;;;9.12;100.00;100190.44;5039223;28;20045;-93
2023/04/06 03:31:20;;;;;;;14.95;7.57;;;;;;;9.18;100.00;100177.09;5039038;28;20555;-93
2023/04/06 03:33:47;;;;;;;21.50;10.45;;;;;;;9.09;100.00;100180.09;5039657;28;20081;-93
2023/04/06 03:36:14;;;;;;;20.10;9.75;;;;;;;9.02;100.00;100160.38;5025798;28;20049;-92
2023/04/06 03:38:41;;;;;;;19.27;9.80;;;;;;;8.94;100.00;100152.81;5026013;28;20049;-93
2023/04/06 03:41:07;;;;;;;18.73;9.20;;;;;;;9.19;100.00;100184.03;5039138;28;20057;-92
2023/04/06 03:43:34;;;;;;;21.13;9.73;;;;;;;8.90;100.00;100146.03;5038981;28;20095;-92
2023/04/06 03:46:01;;;;;;;17.20;7.70;;;;;;;9.31;100.00;100217.50;5039193;28;20049;-93
2023/04/06 03:48:28;;;;;;;14.85;6.55;;;;;;;9.12;100.00;100180.81;5039955;28;20131;-92
2023/04/06 03:50:54;;;;;;;18.52;9.35;;;;;;;9.04;100.00;100175.06;5036661;28;20040;-92
2023/04/06 03:53:21;;;;;;;18.55;8.85;;;;;;;9.20;100.00;100192.72;5039359;28;20099;-93
2023/04/06 03:55:48;;;;;;;20.20;8.68;;;;;;;9.18;100.00;100191.94;5039752;28;20049;-92
2023/04/06 03:58:14;;;;;;;16.92;7.63;;;;;;;9.05;100.00;100161.09;5039622;28;20110;-93
2023/04/06 04:00:41;;;;;;;14.63;7.05;;;;;;;9.31;100.00;100204.44;5036500;28;20095;-93
2023/04/06 04:03:08;;;;;;;13.73;6.55;;;;;;;8.94;100.00;100147.59;5039664;28;20049;-92
2023/04/06 04:05:35;;;;;;;16.85;8.25;;;;;;;9.01;100.00;100156.91;5040077;28;20049;-93
2023/04/06 04:08:02;;;;;;;17.30;8.55;;;;;;;9.49;100.00;100204.56;5040051;28;20445;-93
2023/04/06 04:10:29;;;;;;;16.35;7.70;;;;;;;9.18;100.00;100144.94;5039482;28;20059;-93
2023/04/06 04:12:56;;;;;;;15.30;7.53;;;;;;;9.22;100.00;100152.56;5021846;28;20360;-94
2023/04/06 04:15:23;;;;;;;18.33;9.25;;;;;;;9.18;100.00;100148.38;5020112;28;20053;-94
2023/04/06 04:17:50;;;;;;;17.95;9.85;;;;;;;9.41;100.00;100207.50;5020487;28;20049;-93
2023/04/06 04:20:17;;;;;;;18.48;8.73;;;;;;;9.55;100.00;100206.09;5020081;28;20053;-93
2023/04/06 04:22:44;;;;;;;18.27;9.02;;;;;;;8.98;100.00;100114.38;5038875;28;20079;-93
2023/04/06 04:25:10;;;;;;;18.00;9.30;;;;;;;8.97;100.00;100120.53;5039460;28;20111;-93
2023/04/06 04:27:37;;;;;;;16.33;8.02;;;;;;;8.90;100.00;100114.72;5039319;28;20094;-92
2023/04/06 04:30:05;;;;;;;16.02;8.48;;;;;;;9.36;100.00;100206.00;5038550;28;20479;-93
2023/04/06 04:32:32;;;;;;;17.38;7.82;;;;;;;9.17;100.00;100167.59;5036579;28;20044;-93
2023/04/06 04:34:59;;;;;;;19.27;9.75;;;;;;;9.17;100.00;100180.66;5039049;28;20071;-94
2023/04/06 04:37:26;;;;;;;16.40;7.65;;;;;;;9.42;100.00;100218.81;5037710;28;20060;-92
2023/04/06 04:39:52;;;;;;;21.92;10.45;;;;;;;9.27;100.00;100202.84;5037918;28;20056;-93
2023/04/06 04:42:19;;;;;;;14.07;7.03;;;;;;;8.94;100.00;100171.09;5052007;28;20049;-90
2023/04/06 04:44:46;;;;;;;21.48;9.65;;;;;;;8.96;100.00;100176.25;5054541;28;20545;-91
2023/04/06 04:47:12;;;;;;;19.42;9.63;;;;;;;8.88;100.00;100176.59;5037043;28;20052;-91
2023/04/06 04:49:39;;;;;;;19.00;9.80;;;;;;;8.85;100.00;100167.13;5054647;28;20068;-90
2023/04/06 04:52:06;;;;;;;18.52;9.95;;;;;;;8.91;100.00;100182.53;5053314;28;20083;-91
2023/04/06 04:54:32;;;;;;;18.55;9.20;;;;;;;8.90;100.00;100175.59;5044415;28;20040;-90
2023/04/06 04:56:59;;;;;;;24.58;12.45;;;;;;;8.87;100.00;100161.81;5055040;28;20045;-90
2023/04/06 04:59:26;;;;;;;17.40;7.93;;;;;;;8.84;100.00;100139.31;5042119;28;20053;-91
2023/04/06 05:01:53;;;;;;;19.13;8.70;;;;;;;9.08;100.00;100168.81;5036245;28;20053;-90
2023/04/06 05:04:22;;;;;;;19.23;9.73;;;;;;;9.35;100.00;100210.41;5054388;28;20143;-90
2023/04/06 05:06:49;;;;;;;18.88;9.88;;;;;;;9.34;100.00;100219.13;5036869;28;20052;-90
2023/04/06 05:09:17;;;;;;;19.25;9.50;;;;;;;8.99;100.00;100168.31;5037046;28;20076;-92
2023/04/06 05:11:43;;;;;;;18.50;8.38;;;;;;;9.04;100.00;100161.16;5037289;28;20106;-93
2023/04/06 05:14:10;;;;;;;19.73;9.23;;;;;;;8.99;100.00;100153.50;5053431;28;20057;-92
2023/04/06 05:16:37;;;;;;;16.20;6.80;;;;;;;9.19;100.00;100178.81;5037180;28;20052;-93
2023/04/06 05:19:04;;;;;;;11.80;5.22;;;;;;;9.27;100.00;100175.88;5036113;28;20099;-91
2023/04/06 05:21:31;;;;;;;20.88;8.52;;;;;;;9.17;100.00;100174.56;5036895;28;20485;-92
2023/04/06 05:23:58;;;;;;;19.92;8.55;;;;;;;9.25;100.00;100168.09;5054508;28;20095;-91
2023/04/06 05:26:25;;;;;;;17.33;7.97;;;;;;;9.31;100.00;100157.41;5036960;28;20448;-92
2023/04/06 05:28:51;;;;;;;14.30;6.18;;;;;;;9.27;100.00;100161.06;5037064;28;20532;-91
2023/04/06 05:31:18;;;;;;;16.95;6.95;;;;;;;9.24;100.00;100142.03;5036249;28;20052;-91
2023/04/06 05:33:45;;;;;;;14.65;7.07;;;;;;;9.38;100.00;100168.44;5053530;28;20132;-91
2023/04/06 05:36:12;;;;;;;15.82;7.15;;;;;;;9.36;100.00;100179.88;5037036;28;20399;-92
2023/04/06 05:38:40;;;;;;;14.40;6.85;;;;;;;9.40;100.00;100182.31;5022599;28;20102;-91
2023/04/06 05:41:07;;;;;;;13.32;5.95;;;;;;;9.27;100.00;100176.72;5035481;28;20041;-91
2023/04/06 05:43:34;;;;;;;15.65;8.13;;;;;;;9.26;100.00;100163.72;5036671;28;20029;-92
2023/04/06 05:46:01;;;;;;;13.65;7.18;;;;;;;9.38;100.00;100180.66;5033009;28;20119;-93
2023/04/06 05:48:28;;;;;;;14.60;6.05;;;;;;;9.08;100.00;100116.59;5019608;28;20056;-93
2023/04/06 05:50:55;;;;;;;16.05;7.40;;;;;;;9.49;100.00;100184.53;5035143;28;20726;-92
2023/04/06 05:53:22;;;;;;;13.75;5.65;;;;;;;9.42;100.00;100159.59;5048281;28;20464;-93
2023/04/06 05:55:48;;;;;;;12.60;4.82;;;;;;;9.40;100.00;100150.97;5036947;28;20430;-93
2023/04/06 05:58:17;;;;;;;13.20;4.82;;;;;;;9.80;100.00;100200.69;5046432;28;20048;-91
2023/04/06 06:00:45;;;;;;;11.48;5.00;;;;;;;9.72;100.00;100201.03;5052935;28;20123;-91
2023/04/06 06:03:12;;;;;;;11.60;5.40;;;;;;;9.16;100.00;100118.03;5036136;28;20045;-92
2023/04/06 06:05:39;;;;;;;12.80;5.82;;;;;;;9.76;100.00;100199.97;5032349;28;20049;-91
2023/04/06 06:08:06;;;;;;;9.13;3.88;;;;;;;9.56;100.00;100173.81;5038319;28;20048;-92
2023/04/06 06:10:33;;;;;;;10.32;3.72;;;;;;;9.23;100.00;100103.78;5051020;28;20045;-92
2023/04/06 06:13:00;;;;;;;6.88;2.45;;;;;;;9.37;100.00;100124.13;5035977;28;20114;-92
2023/04/06 06:15:26;;;;;;;7.55;2.65;;;;;;;9.64;100.00;100156.88;5036022;28;20520;-91
2023/04/06 06:17:53;;;;;;;7.78;2.50;;;;;;;9.55;100.00;100146.84;5022400;28;20122;-92
2023/04/06 06:20:20;;;;;;;8.98;1.77;;;;;;;9.63;100.00;100160.44;5046633;28;20048;-91
2023/04/06 06:22:46;;;;;;;6.88;2.03;;;;;;;9.83;100.00;100185.72;5035783;28;20057;-91
2023/04/06 06:25:13;;;;;;;6.75;1.90;;;;;;;9.80;100.00;100179.78;5052658;28;20041;-91
2023/04/06 06:27:40;;;;;;;4.38;1.50;;;;;;;9.25;100.00;100074.06;5052655;28;20052;-91
2023/04/06 06:30:07;;;;;;;2.92;1.38;;;;;;;9.87;100.00;100168.97;5031526;28;20045;-92
2023/04/06 06:32:34;;;;;;;4.40;1.50;;;;;;;9.97;100.00;100182.50;5034629;28;20052;-92
2023/04/06 06:35:00;;;;;;;5.55;1.50;;;;;;;9.72;100.00;100142.63;5024802;28;20548;-94
2023/04/06 06:37:27;;;;;;;3.00;1.30;;;;;;;9.76;100.00;100146.84;5041115;28;20478;-91
2023/04/06 06:39:56;;;;;;;3.58;1.30;;;;;;;9.85;100.00;100164.72;5059324;28;20473;-94
2023/04/06 06:42:23;;;;;;;2.47;1.17;;;;;;;9.78;100.00;100143.22;5046511;28;20064;-92
2023/04/06 06:44:51;;;;;;;2.45;1.20;;;;;;;9.78;100.00;100145.84;5056613;28;20148;-93
2023/04/06 06:47:17;;;;;;;4.15;1.70;;;;;;;9.75;100.00;100148.59;5040519;28;20056;-93
2023/04/06 06:49:44;;;;;;;4.03;1.30;;;;;;;9.84;100.00;100152.56;5039884;28;20125;-94
2023/04/06 06:52:11;;;;;;;4.45;1.52;;;;;;;9.77;100.00;100136.28;5039827;28;20524;-93
2023/04/06 06:54:38;;;;;;;5.50;1.67;;;;;;;9.96;100.00;100179.94;5040713;28;20386;-95
2023/04/06 06:57:05;;;;;;;4.60;1.20;;;;;;;9.92;100.00;100163.53;5041671;28;20045;-94
2023/04/06 06:59:31;;;;;;;4.72;1.20;;;;;;;9.82;100.00;100136.94;5043207;28;20080;-94
2023/04/06 07:01:58;;;;;;;5.50;1.30;;;;;;;9.74;100.00;100156.50;5039581;28;20044;-93
2023/04/06 07:04:25;;;;;;;3.97;1.20;;;;;;;9.65;100.00;100126.38;5040370;28;20051;-93
2023/04/06 07:06:52;;;;;;;4.57;1.33;;;;;;;9.88;100.00;100156.75;5038632;28;20048;-91
2023/04/06 07:09:19;;;;;;;2.10;1.30;;;;;;;9.83;100.00;100150.88;5039592;28;20045;-91
2023/04/06 07:11:46;;;;;;;4.55;1.60;;;;;;;9.70;100.00;100127.00;5038974;28;20457;-93
2023/04/06 07:14:13;;;;;;;5.22;1.70;;;;;;;9.79;100.00;100141.44;5039778;28;20132;-92
2023/04/06 07:16:41;;;;;;;4.70;1.48;;;;;;;9.95;100.00;100167.78;5057470;28;20045;-90
2023/04/06 07:19:09;;;;;;;3.83;1.20;;;;;;;9.84;100.00;100160.41;5039498;28;20470;-90
2023/04/06 07:21:36;;;;;;;7.25;1.33;;;;;;;9.95;100.00;100194.81;5040358;28;20060;-92
2023/04/06 07:24:03;;;;;;;5.32;1.48;;;;;;;9.73;100.00;100173.94;5054961;28;20057;-93
2023/04/06 07:26:30;;;;;;;2.65;1.10;;;;;;;9.73;100.00;100147.81;5039690;28;20056;-93
2023/04/06 07:28:56;;;;;;;4.95;1.38;;;;;;;9.82;100.00;100163.09;5057412;28;20049;-91
2023/04/06 07:31:23;;;;;;;3.88;1.40;;;;;;;9.49;100.00;100103.53;5038921;28;20457;-91
2023/04/06 07:33:50;;;;;;;4.72;1.40;;;;;;;9.88;100.00;100167.22;5036217;28;20124;-91
2023/04/06 07:36:17;;;;;;;4.97;1.25;;;;;;;9.74;100.00;100128.59;5042803;28;20037;-92
2023/04/06 07:38:45;;;;;;;3.17;1.10;;;;;;;9.79;100.00;100131.00;5038299;28;20453;-94
2023/04/06 07:41:12;;;;;;;2.00;1.00;;;;;;;9.87;100.00;100147.22;5038148;28;20406;-90
2023/04/06 07:43:39;;;;;;;3.22;1.10;;;;;;;9.94;100.00;100147.78;5039392;28;20371;-89
2023/04/06 07:46:06;;;;;;;2.95;1.10;;;;;;;9.92;100.00;100131.31;5041152;28;20046;-89
2023/04/06 07:48:33;;;;;;;2.78;1.38;;;;;;;10.28;100.00;100181.13;5052592;28;20053;-90
2023/04/06 07:51:03;;;;;;;3.70;1.05;;;;;;;10.20;100.00;100170.19;5022255;28;20041;-90
2023/04/06 07:53:30;;;;;;;3.13;1.27;;;;;;;10.11;100.00;100160.97;5052423;28;20156;-91
2023/04/06 07:56:00;;;;;;;3.33;1.13;;;;;;;10.07;100.00;100155.03;5036681;28;20045;-91
2023/04/06 07:58:27;;;;;;;3.45;1.30;;;;;;;9.98;100.00;100136.28;5047637;28;20410;-91
2023/04/06 08:00:55;;;;;;;3.17;1.20;;;;;;;9.80;100.00;100115.25;5025167;28;20052;-91
2023/04/06 08:03:25;;;;;;;8.15;1.20;;;;;;;9.84;100.00;100119.44;5028737;28;20057;-91
2023/04/06 08:05:52;;;;;;;2.58;1.27;;;;;;;10.07;100.00;100151.53;5034883;28;20051;-91
2023/04/06 08:08:21;;;;;;;2.60;1.08;;;;;;;10.00;100.00;100145.72;5038701;28;20049;-92
2023/04/06 08:10:48;;;;;;;5.95;1.20;;;;;;;9.85;100.00;100120.28;5038208;28;20033;-93
2023/04/06 08:13:15;;;;;;;7.13;1.45;;;;;;;9.82;100.00;100131.72;5055297;28;20608;-90
2023/04/06 08:15:42;;;;;;;5.35;1.38;;;;;;;9.92;100.00;100144.41;5036418;28;20068;-90
2023/04/06 08:18:10;;;;;;;4.93;1.42;;;;;;;9.78;100.00;100129.31;5035609;28;20056;-90
2023/04/06 08:20:36;;;;;;;5.72;1.60;;;;;;;9.78;100.00;100140.63;5053291;28;20438;-89
2023/04/06 08:23:03;;;;;;;8.30;1.90;;;;;;;10.01;100.00;100163.13;5035849;28;20049;-90
2023/04/06 08:25:30;;;;;;;4.78;1.13;;;;;;;9.59;100.00;100108.34;5034999;28;20045;-90
2023/04/06 08:27:57;;;;;;;6.30;1.40;;;;;;;9.99;100.00;100180.66;5037175;28;20045;-90
2023/04/06 08:30:23;;;;;;;7.47;1.63;;;;;;;9.42;100.00;100107.31;5048382;28;20072;-91
2023/04/06 08:32:50;;;;;;;3.25;1.17;;;;;;;9.85;100.00;100178.66;5054404;28;20049;-89
2023/04/06 08:35:17;;;;;;;4.03;1.20;;;;;;;9.85;100.00;100190.88;5037046;28;20063;-90
2023/04/06 08:37:44;;;;;;;5.10;1.42;;;;;;;9.85;100.00;100165.56;5036799;28;20052;-89
2023/04/06 08:40:12;;;;;;;3.90;1.25;;;;;;;9.75;100.00;100174.72;5040075;28;20053;-89
2023/04/06 08:42:43;;;;;;;6.13;1.50;;;;;;;9.65;100.00;100161.22;5032189;28;20049;-89
2023/04/06 08:45:10;;;;;;;4.53;1.25;;;;;;;9.69;100.00;100186.31;5048209;28;20045;-90
2023/04/06 08:47:37;;;;;;;2.55;1.17;;;;;;;9.57;100.00;100154.63;5054168;28;20045;-90
2023/04/06 08:50:05;;;;;;;5.47;1.40;;;;;;;9.92;100.00;100184.47;5036828;28;20045;-89
2023/04/06 08:52:33;;;;;;;5.55;1.60;;;;;;;9.85;100.00;100183.03;5032637;28;20458;-89
2023/04/06 08:55:01;;;;;;;3.60;1.40;;;;;;;9.48;100.00;100182.81;5050411;28;20048;-89
2023/04/06 08:57:28;;;;;;;6.68;1.27;;;;;;;9.72;100.00;100184.47;5029680;28;20589;-89
2023/04/06 08:59:56;;;;;;;2.97;1.20;;;;;;;9.57;100.00;100144.16;5029256;28;20106;-88
2023/04/06 09:02:24;;;;;;;4.78;1.45;;;;;;;9.84;100.00;100173.47;5035133;28;20134;-89
2023/04/06 09:04:53;;;;;;;6.85;1.48;;;;;;;9.44;100.00;100138.63;5035739;28;20087;-89
2023/04/06 09:07:21;;;;;;;2.75;1.10;;;;;;;9.99;100.00;100212.06;5030985;28;20068;-89
2023/04/06 09:09:48;;;;;;;4.18;1.30;;;;;;;9.91;100.00;100197.59;5035537;28;20122;-89
2023/04/06 09:12:29;;;;;;;5.90;1.80;;;;;;;9.64;100.00;100153.44;5034087;28;20044;-88
2023/04/06 09:14:56;;;;;;;4.97;1.27;;;;;;;9.98;100.00;100199.03;5046324;28;20126;-89
2023/04/06 09:17:26;;;;;;;2.75;1.10;;;;;;;9.78;100.00;100163.31;5039953;28;20056;-88
2023/04/06 09:19:52;;;;;;;2.80;1.10;;;;;;;9.60;100.00;100170.19;5035598;28;20064;-88
2023/04/06 09:22:19;;;;;;;5.03;1.40;;;;;;;9.81;100.00;100186.69;5037861;28;20478;-88
2023/04/06 09:24:47;;;;;;;2.30;1.10;;;;;;;9.91;100.00;100221.97;5031505;28;20048;-89
2023/04/06 09:27:15;;;;;;;6.05;1.40;;;;;;;9.71;100.00;100215.00;5033298;28;20045;-86
2023/04/06 09:29:44;;;;;;;5.18;1.48;;;;;;;9.39;100.00;100167.53;5034713;28;20080;-88
2023/04/06 09:32:11;;;;;;;4.20;1.38;;;;;;;9.49;100.00;100144.47;5034242;28;20526;-87
2023/04/06 09:34:39;;;;;;;3.63;1.20;;;;;;;9.57;100.00;100178.97;5036248;28;20080;-87
2023/04/06 09:37:19;;;;;;;4.50;1.23;;;;;;;9.86;100.00;100203.03;5042132;28;20102;-87
2023/04/06 09:39:46;;;;;;;5.28;1.20;;;;;;;9.80;100.00;100185.84;5051987;28;20063;-87
2023/04/06 09:42:25;;;;;;;4.60;1.40;;;;;;;9.64;100.00;100183.03;5052441;28;20056;-87
2023/04/06 09:44:52;;;;;;;3.38;1.00;;;;;;;9.99;100.00;100214.66;5022471;28;20094;-88
2023/04/06 09:47:19;;;;;;;5.45;1.48;;;;;;;9.74;100.00;100203.53;5052985;28;20045;-88
2023/04/06 09:49:49;;;;;;;6.00;1.35;;;;;;;9.93;100.00;100214.91;5052854;28;20049;-87
2023/04/06 09:52:17;;;;;;;2.95;1.25;;;;;;;9.89;100.00;100197.66;5039211;28;20057;-87
2023/04/06 09:54:49;;;;;;;5.47;1.40;;;;;;;10.05;100.00;100219.63;5047311;28;20380;-87
2023/04/06 09:57:28;;;;;;;4.40;1.30;;;;;;;10.24;100.00;100210.97;5052657;28;20048;-87
2023/04/06 10:00:12;;;;;;;3.50;1.60;;;;;;;10.10;100.00;100236.91;5053405;28;20056;-87
2023/04/06 10:03:09;;;;;;;8.70;1.30;;;;;;;9.91;100.00;100229.81;5051205;28;20056;-87
2023/04/06 10:05:45;;;;;;;6.53;1.40;;;;;;;9.69;100.00;100229.91;5039383;28;20050;-88
2023/04/06 10:08:13;;;;;;;4.97;1.58;;;;;;;9.59;100.00;100207.66;5035933;28;20114;-87
2023/04/06 10:10:42;;;;;;;2.17;1.08;;;;;;;9.75;100.00;100195.63;5034873;28;20049;-87
2023/04/06 10:13:11;;;;;;;8.18;1.60;;;;;;;10.14;100.00;100215.75;5018756;28;20057;-87
2023/04/06 10:15:40;;;;;;;6.32;1.40;;;;;;;9.83;100.00;100187.50;5027857;28;20048;-87
2023/04/06 10:18:09;;;;;;;9.00;1.30;;;;;;;9.75;100.00;100202.66;5053484;28;20801;-87
2023/04/06 10:20:42;;;;;;;11.38;1.60;;;;;;;9.99;100.00;100226.91;5034861;28;20409;-87
2023/04/06 10:23:22;;;;;;;;;;;;;;;10.07;100.00;100224.78;5036093;28;20071;-87
2023/04/06 10:25:59;;;;;;;4.80;1.30;;;;;;;9.53;100.00;100182.66;5052255;28;19928;-87
2023/04/06 10:28:32;;;;;;;6.60;1.45;;;;;;;9.77;100.00;100190.34;5052895;28;20067;-87
2023/04/06 10:31:01;;;;;;;5.97;1.50;;;;;;;10.03;100.00;100226.69;5033888;28;20091;-87
2023/04/06 10:33:28;;;;;;;5.05;1.42;;;;;;;9.92;100.00;100186.25;5052722;28;20080;-87
2023/04/06 10:35:55;;;;;;;7.95;1.95;;;;;;;9.93;100.00;100201.84;5035824;28;20045;-87
2023/04/06 10:38:42;;;;;;;12.65;2.05;;;;;;;9.77;100.00;100177.28;5038733;28;20526;-87
2023/04/06 10:41:12;;;;;;;3.95;1.60;;;;;;;9.76;100.00;100210.44;5048304;28;20524;-87
2023/04/06 10:43:41;;;;;;;7.35;1.50;;;;;;;9.75;100.00;100189.56;5034942;28;20049;-87
2023/04/06 10:46:09;;;;;;;11.10;2.13;;;;;;;9.80;100.00;100166.69;5048545;28;20478;-88
2023/04/06 10:48:45;;;;;;;5.22;1.73;;;;;;;10.12;100.00;100245.53;5029469;28;20045;-88
2023/04/06 10:51:14;;;;;;;5.88;1.50;;;;;;;10.05;100.00;100222.22;5035263;28;20080;-91
2023/04/06 10:53:43;;;;;;;5.97;1.48;;;;;;;9.86;100.00;100218.72;5053490;28;20340;-90
2023/04/06 10:56:11;;;;;;;7.25;1.88;;;;;;;9.83;100.00;100232.78;5045307;28;20045;-89
2023/04/06 10:58:38;;;;;;;7.38;1.50;;;;;;;9.88;100.00;100232.59;5035611;28;20118;-89
2023/04/06 11:01:05;;;;;;;9.93;1.50;;;;;;;10.03;100.00;100234.53;5032485;28;20569;-89
2023/04/06 11:03:43;;;;;;;7.07;1.60;;;;;;;9.92;100.00;100218.47;5035401;28;20048;-90
2023/04/06 11:06:09;;;;;;;8.40;1.50;;;;;;;10.03;100.00;100220.59;5032581;28;20046;-90
2023/04/06 11:08:38;;;;;;;9.20;1.63;;;;;;;10.01;100.00;100218.06;5032016;28;20545;-89
2023/04/06 11:11:07;;;;;;;6.57;1.80;;;;;;;10.28;100.00;100254.38;5049706;28;20057;-88
2023/04/06 11:13:51;;;;;;;6.47;1.73;;;;;;;10.19;100.00;100260.88;5025686;28;20057;-90
2023/04/06 11:16:23;;;;;;;12.57;1.65;;;;;;;9.80;100.00;100242.50;5035616;28;20490;-90
2023/04/06 11:18:59;;;;;;;7.60;1.30;;;;;;;9.92;100.00;100262.06;5038219;28;20072;-90
2023/04/06 11:21:38;;;;;;;6.13;1.70;;;;;;;9.63;100.00;100243.22;5037280;28;20056;-88